sensor_id;sensor_type;location;lat;lon;timestamp;temperature;humidity
16625;DHT22;8426;48.496;9.098;2023-07-20T05:28:44;17.70;99.90
16625;DHT22;8426;48.496;9.098;2023-07-20T05:39:07;17.90;99.90
16625;DHT22;8426;48.496;9.098;2023-07-20T06:15:46;18.50;99.90
16625;DHT22;8426;48.496;9.098;2023-07-20T06:20:50;19.20;99.90
16625;DHT22;8426;48.496;9.098;2023-07-20T06:25:53;19.50;99.90
16625;DHT22;8426;48.496;9.098;2023-07-20T06:31:02;19.80;99.90
16625;DHT22;8426;48.496;9.098;2023-07-20T06:36:06;19.90;99.90
16625;DHT22;8426;48.496;9.098;2023-07-20T06:41:09;20.00;99.90
16625;DHT22;8426;48.496;9.098;2023-07-20T06:46:16;20.20;99.90
16625;DHT22;8426;48.496;9.098;2023-07-20T06:51:20;20.80;99.90
16625;DHT22;8426;48.496;9.098;2023-07-20T06:56:24;21.10;99.90
16625;DHT22;8426;48.496;9.098;2023-07-20T07:01:31;21.80;99.90
16625;DHT22;8426;48.496;9.098;2023-07-20T07:06:35;21.80;99.90
16625;DHT22;8426;48.496;9.098;2023-07-20T07:11:38;22.00;99.90
16625;DHT22;8426;48.496;9.098;2023-07-20T07:16:43;22.20;99.90
16625;DHT22;8426;48.496;9.098;2023-07-20T07:21:47;22.20;99.90
16625;DHT22;8426;48.496;9.098;2023-07-20T07:26:50;22.10;99.90
16625;DHT22;8426;48.496;9.098;2023-07-20T07:31:55;22.30;99.90
16625;DHT22;8426;48.496;9.098;2023-07-20T07:37:00;23.10;99.90
16625;DHT22;8426;48.496;9.098;2023-07-20T07:42:04;23.90;99.90
16625;DHT22;8426;48.496;9.098;2023-07-20T07:47:09;24.30;99.90
16625;DHT22;8426;48.496;9.098;2023-07-20T07:52:12;24.10;99.90
16625;DHT22;8426;48.496;9.098;2023-07-20T07:57:16;24.70;99.90
16625;DHT22;8426;48.496;9.098;2023-07-20T08:02:22;25.50;99.90
16625;DHT22;8426;48.496;9.098;2023-07-20T08:07:26;27.40;98.60
16625;DHT22;8426;48.496;9.098;2023-07-20T08:12:30;29.20;95.00
16625;DHT22;8426;48.496;9.098;2023-07-20T08:17:35;31.30;93.50
16625;DHT22;8426;48.496;9.098;2023-07-20T08:22:39;31.00;92.20
16625;DHT22;8426;48.496;9.098;2023-07-20T08:27:42;27.90;93.10
16625;DHT22;8426;48.496;9.098;2023-07-20T08:32:52;26.30;96.60
16625;DHT22;8426;48.496;9.098;2023-07-20T08:38:02;27.50;95.20
16625;DHT22;8426;48.496;9.098;2023-07-20T08:43:06;27.90;95.60
16625;DHT22;8426;48.496;9.098;2023-07-20T08:48:12;30.20;92.90
16625;DHT22;8426;48.496;9.098;2023-07-20T08:53:16;31.30;90.20
16625;DHT22;8426;48.496;9.098;2023-07-20T08:58:22;29.80;90.10
16625;DHT22;8426;48.496;9.098;2023-07-20T09:03:29;28.60;91.20
16625;DHT22;8426;48.496;9.098;2023-07-20T09:08:33;29.90;91.80
16625;DHT22;8426;48.496;9.098;2023-07-20T09:13:37;31.00;86.70
16625;DHT22;8426;48.496;9.098;2023-07-20T09:18:43;31.20;88.40
16625;DHT22;8426;48.496;9.098;2023-07-20T09:23:56;30.60;87.10
16625;DHT22;8426;48.496;9.098;2023-07-20T09:28:59;30.50;90.00
16625;DHT22;8426;48.496;9.098;2023-07-20T09:34:05;28.70;89.70
16625;DHT22;8426;48.496;9.098;2023-07-20T09:39:08;30.10;85.90
16625;DHT22;8426;48.496;9.098;2023-07-20T09:44:14;30.70;89.70
16625;DHT22;8426;48.496;9.098;2023-07-20T09:49:21;31.20;87.60
16625;DHT22;8426;48.496;9.098;2023-07-20T09:54:28;30.00;81.90
16625;DHT22;8426;48.496;9.098;2023-07-20T09:59:32;28.80;86.60
16625;DHT22;8426;48.496;9.098;2023-07-20T10:04:37;30.00;84.20
16625;DHT22;8426;48.496;9.098;2023-07-20T10:09:41;28.90;89.40
16625;DHT22;8426;48.496;9.098;2023-07-20T10:14:59;29.50;84.40
16625;DHT22;8426;48.496;9.098;2023-07-20T10:20:15;28.90;86.80
16625;DHT22;8426;48.496;9.098;2023-07-20T10:25:20;29.20;85.00
16625;DHT22;8426;48.496;9.098;2023-07-20T10:30:28;29.00;81.90
16625;DHT22;8426;48.496;9.098;2023-07-20T10:35:53;28.90;84.40
16625;DHT22;8426;48.496;9.098;2023-07-20T10:40:57;27.70;84.90
16625;DHT22;8426;48.496;9.098;2023-07-20T10:46:03;27.70;85.50
16625;DHT22;8426;48.496;9.098;2023-07-20T10:51:13;26.30;90.00
16625;DHT22;8426;48.496;9.098;2023-07-20T10:56:20;27.20;87.20
16625;DHT22;8426;48.496;9.098;2023-07-20T11:01:27;27.40;86.90
16625;DHT22;8426;48.496;9.098;2023-07-20T11:06:33;27.90;88.70
16625;DHT22;8426;48.496;9.098;2023-07-20T11:11:37;28.00;88.20
16625;DHT22;8426;48.496;9.098;2023-07-20T11:16:43;27.70;89.30
16625;DHT22;8426;48.496;9.098;2023-07-20T11:21:55;28.10;87.90
16625;DHT22;8426;48.496;9.098;2023-07-20T11:27:06;27.70;86.50
16625;DHT22;8426;48.496;9.098;2023-07-20T11:32:10;26.40;85.60
16625;DHT22;8426;48.496;9.098;2023-07-20T11:37:16;26.20;90.20
16625;DHT22;8426;48.496;9.098;2023-07-20T11:42:20;26.80;90.00
16625;DHT22;8426;48.496;9.098;2023-07-20T11:47:32;27.50;83.80
16625;DHT22;8426;48.496;9.098;2023-07-20T11:52:37;27.60;85.60
16625;DHT22;8426;48.496;9.098;2023-07-20T11:58:02;28.20;87.70
16625;DHT22;8426;48.496;9.098;2023-07-20T12:03:06;28.10;83.80
16625;DHT22;8426;48.496;9.098;2023-07-20T12:08:11;27.10;85.10
16625;DHT22;8426;48.496;9.098;2023-07-20T12:13:15;27.30;86.30
16625;DHT22;8426;48.496;9.098;2023-07-20T12:18:34;28.00;87.20
16625;DHT22;8426;48.496;9.098;2023-07-20T12:23:53;28.30;86.90
16625;DHT22;8426;48.496;9.098;2023-07-20T12:28:57;28.10;85.10
16625;DHT22;8426;48.496;9.098;2023-07-20T12:34:01;28.00;83.60
16625;DHT22;8426;48.496;9.098;2023-07-20T12:39:08;28.20;82.60
16625;DHT22;8426;48.496;9.098;2023-07-20T12:44:13;28.30;83.70
16625;DHT22;8426;48.496;9.098;2023-07-20T12:49:24;28.40;85.80
16625;DHT22;8426;48.496;9.098;2023-07-20T12:54:30;28.20;79.80
16625;DHT22;8426;48.496;9.098;2023-07-20T12:59:33;28.30;85.50
16625;DHT22;8426;48.496;9.098;2023-07-20T13:04:40;28.40;84.30
16625;DHT22;8426;48.496;9.098;2023-07-20T13:09:45;28.00;84.10
16625;DHT22;8426;48.496;9.098;2023-07-20T13:14:49;27.90;82.20
16625;DHT22;8426;48.496;9.098;2023-07-20T13:19:55;28.00;80.80
16625;DHT22;8426;48.496;9.098;2023-07-20T13:25:00;28.10;85.70
16625;DHT22;8426;48.496;9.098;2023-07-20T13:30:06;27.90;84.00
16625;DHT22;8426;48.496;9.098;2023-07-20T13:35:17;27.50;81.50
16625;DHT22;8426;48.496;9.098;2023-07-20T13:40:25;27.80;83.10
16625;DHT22;8426;48.496;9.098;2023-07-20T13:45:28;27.70;80.70
16625;DHT22;8426;48.496;9.098;2023-07-20T13:50:34;27.60;82.70
16625;DHT22;8426;48.496;9.098;2023-07-20T13:55:42;27.60;83.90
16625;DHT22;8426;48.496;9.098;2023-07-20T14:00:48;27.80;82.40
16625;DHT22;8426;48.496;9.098;2023-07-20T14:05:52;28.10;83.80
16625;DHT22;8426;48.496;9.098;2023-07-20T14:11:00;28.20;83.60
16625;DHT22;8426;48.496;9.098;2023-07-20T14:16:09;28.00;79.90
16625;DHT22;8426;48.496;9.098;2023-07-20T14:21:20;27.30;82.40
16625;DHT22;8426;48.496;9.098;2023-07-20T14:26:34;27.20;78.50
16625;DHT22;8426;48.496;9.098;2023-07-20T14:31:37;27.20;82.80
16625;DHT22;8426;48.496;9.098;2023-07-20T14:36:42;27.20;82.20
16625;DHT22;8426;48.496;9.098;2023-07-20T14:41:49;26.90;81.90
16625;DHT22;8426;48.496;9.098;2023-07-20T14:46:54;27.30;81.20
16625;DHT22;8426;48.496;9.098;2023-07-20T14:52:14;27.20;81.60
16625;DHT22;8426;48.496;9.098;2023-07-20T14:57:22;27.00;79.50
16625;DHT22;8426;48.496;9.098;2023-07-20T15:02:33;27.10;81.80
16625;DHT22;8426;48.496;9.098;2023-07-20T15:07:41;27.20;78.70
16625;DHT22;8426;48.496;9.098;2023-07-20T15:12:47;27.10;82.40
16625;DHT22;8426;48.496;9.098;2023-07-20T15:17:50;26.50;83.10
16625;DHT22;8426;48.496;9.098;2023-07-20T15:22:57;26.70;84.60
16625;DHT22;8426;48.496;9.098;2023-07-20T15:28:03;27.00;83.60
16625;DHT22;8426;48.496;9.098;2023-07-20T15:33:12;27.10;80.50
16625;DHT22;8426;48.496;9.098;2023-07-20T15:38:18;27.00;84.00
16625;DHT22;8426;48.496;9.098;2023-07-20T15:43:25;26.80;83.80
16625;DHT22;8426;48.496;9.098;2023-07-20T15:48:28;26.80;81.80
16625;DHT22;8426;48.496;9.098;2023-07-20T15:53:38;26.70;83.10
16625;DHT22;8426;48.496;9.098;2023-07-20T15:58:53;26.30;84.80
16625;DHT22;8426;48.496;9.098;2023-07-20T16:04:03;26.30;84.20
16625;DHT22;8426;48.496;9.098;2023-07-20T16:09:07;26.20;82.40
16625;DHT22;8426;48.496;9.098;2023-07-20T16:14:13;26.10;83.90
16625;DHT22;8426;48.496;9.098;2023-07-20T16:19:18;26.00;84.00
16625;DHT22;8426;48.496;9.098;2023-07-20T16:24:23;26.20;84.70
16625;DHT22;8426;48.496;9.098;2023-07-20T16:29:31;25.80;84.20
16625;DHT22;8426;48.496;9.098;2023-07-20T16:34:36;25.40;86.00
16625;DHT22;8426;48.496;9.098;2023-07-20T16:39:42;25.10;86.90
16625;DHT22;8426;48.496;9.098;2023-07-20T16:44:53;24.90;85.70
16625;DHT22;8426;48.496;9.098;2023-07-20T16:49:56;24.70;86.00
16625;DHT22;8426;48.496;9.098;2023-07-20T16:55:00;24.60;86.30
16625;DHT22;8426;48.496;9.098;2023-07-20T17:00:06;24.60;88.10
16625;DHT22;8426;48.496;9.098;2023-07-20T17:05:12;24.30;86.90
16625;DHT22;8426;48.496;9.098;2023-07-20T17:10:16;24.30;89.00
16625;DHT22;8426;48.496;9.098;2023-07-20T17:15:21;24.10;88.20
16625;DHT22;8426;48.496;9.098;2023-07-20T17:20:25;24.20;89.40
16625;DHT22;8426;48.496;9.098;2023-07-20T17:25:32;24.00;90.00
16625;DHT22;8426;48.496;9.098;2023-07-20T17:30:37;23.80;90.60
16625;DHT22;8426;48.496;9.098;2023-07-20T17:35:40;23.60;90.50
16625;DHT22;8426;48.496;9.098;2023-07-20T17:40:44;23.40;90.20
16625;DHT22;8426;48.496;9.098;2023-07-20T17:45:51;23.00;90.60
16625;DHT22;8426;48.496;9.098;2023-07-20T17:50:56;22.70;90.80
16625;DHT22;8426;48.496;9.098;2023-07-20T17:55:59;22.50;90.80
16625;DHT22;8426;48.496;9.098;2023-07-20T18:01:05;22.30;90.70
16625;DHT22;8426;48.496;9.098;2023-07-20T18:06:08;22.10;91.30
16625;DHT22;8426;48.496;9.098;2023-07-20T18:11:13;22.00;91.60
16625;DHT22;8426;48.496;9.098;2023-07-20T18:16:22;21.90;91.40
16625;DHT22;8426;48.496;9.098;2023-07-20T18:21:25;21.80;91.70
16625;DHT22;8426;48.496;9.098;2023-07-20T18:26:30;21.60;91.20
16625;DHT22;8426;48.496;9.098;2023-07-20T18:31:34;21.30;91.70
16625;DHT22;8426;48.496;9.098;2023-07-20T18:36:38;21.20;91.70
16625;DHT22;8426;48.496;9.098;2023-07-20T18:41:41;21.00;92.20
16625;DHT22;8426;48.496;9.098;2023-07-20T18:46:48;20.80;93.00
16625;DHT22;8426;48.496;9.098;2023-07-20T18:51:51;20.70;92.80
16625;DHT22;8426;48.496;9.098;2023-07-20T18:56:55;20.70;92.90
16625;DHT22;8426;48.496;9.098;2023-07-20T19:02:01;20.60;92.40
16625;DHT22;8426;48.496;9.098;2023-07-20T19:07:05;20.60;91.80
16625;DHT22;8426;48.496;9.098;2023-07-20T19:12:09;20.40;93.40
16625;DHT22;8426;48.496;9.098;2023-07-20T19:17:15;20.10;92.90
16625;DHT22;8426;48.496;9.098;2023-07-20T19:22:18;19.90;94.00
16625;DHT22;8426;48.496;9.098;2023-07-20T19:27:22;19.80;94.00
16625;DHT22;8426;48.496;9.098;2023-07-20T19:32:30;19.70;94.20
16625;DHT22;8426;48.496;9.098;2023-07-20T19:37:34;19.50;95.40
16625;DHT22;8426;48.496;9.098;2023-07-20T19:42:37;19.30;96.00
16625;DHT22;8426;48.496;9.098;2023-07-20T19:47:42;19.00;97.10
16625;DHT22;8426;48.496;9.098;2023-07-20T19:52:45;18.70;98.70
16625;DHT22;8426;48.496;9.098;2023-07-20T19:57:52;18.50;99.20
16625;DHT22;8426;48.496;9.098;2023-07-20T20:02:57;18.20;99.90
16625;DHT22;8426;48.496;9.098;2023-07-20T20:08:04;18.10;99.90
16625;DHT22;8426;48.496;9.098;2023-07-20T20:13:09;17.90;99.30
16625;DHT22;8426;48.496;9.098;2023-07-20T20:18:13;17.80;99.90
16625;DHT22;8426;48.496;9.098;2023-07-20T20:23:20;17.70;99.90
16625;DHT22;8426;48.496;9.098;2023-07-20T20:28:23;17.50;99.90
16625;DHT22;8426;48.496;9.098;2023-07-20T20:33:28;17.40;99.90
16625;DHT22;8426;48.496;9.098;2023-07-20T20:38:32;17.20;99.90
16625;DHT22;8426;48.496;9.098;2023-07-20T20:43:35;17.10;99.90
16625;DHT22;8426;48.496;9.098;2023-07-20T20:48:41;17.00;99.90
16625;DHT22;8426;48.496;9.098;2023-07-20T20:53:47;16.90;99.90
16625;DHT22;8426;48.496;9.098;2023-07-20T20:58:51;16.80;99.90
16625;DHT22;8426;48.496;9.098;2023-07-20T21:03:56;16.70;99.90
16625;DHT22;8426;48.496;9.098;2023-07-20T21:08:59;16.60;99.90
16625;DHT22;8426;48.496;9.098;2023-07-20T21:14:02;16.50;99.90
16625;DHT22;8426;48.496;9.098;2023-07-20T21:19:07;16.40;99.90
16625;DHT22;8426;48.496;9.098;2023-07-20T21:24:13;16.40;99.90
16625;DHT22;8426;48.496;9.098;2023-07-20T21:29:17;16.30;99.90
16625;DHT22;8426;48.496;9.098;2023-07-20T21:34:22;16.10;99.90
16625;DHT22;8426;48.496;9.098;2023-07-20T21:39:25;15.90;99.90
16625;DHT22;8426;48.496;9.098;2023-07-20T21:44:29;15.80;99.90
16625;DHT22;8426;48.496;9.098;2023-07-20T21:49:33;15.70;99.90
16625;DHT22;8426;48.496;9.098;2023-07-20T21:54:37;15.60;99.90
16625;DHT22;8426;48.496;9.098;2023-07-20T21:59:41;15.50;99.90
16625;DHT22;8426;48.496;9.098;2023-07-20T22:04:46;15.40;99.90
16625;DHT22;8426;48.496;9.098;2023-07-20T22:09:50;15.20;99.90
16625;DHT22;8426;48.496;9.098;2023-07-20T22:14:53;15.20;99.90
16625;DHT22;8426;48.496;9.098;2023-07-20T22:19:58;15.10;99.90
16625;DHT22;8426;48.496;9.098;2023-07-20T22:25:08;15.00;99.90
16625;DHT22;8426;48.496;9.098;2023-07-20T22:30:14;15.10;99.90
16625;DHT22;8426;48.496;9.098;2023-07-20T22:35:22;15.00;99.90
16625;DHT22;8426;48.496;9.098;2023-07-20T22:40:32;14.90;99.90
16625;DHT22;8426;48.496;9.098;2023-07-20T22:45:44;14.80;99.90
16625;DHT22;8426;48.496;9.098;2023-07-20T22:51:02;14.80;99.90
16625;DHT22;8426;48.496;9.098;2023-07-20T22:56:08;14.70;99.90
16625;DHT22;8426;48.496;9.098;2023-07-20T23:01:12;14.70;99.90
16625;DHT22;8426;48.496;9.098;2023-07-20T23:06:17;14.80;99.90
16625;DHT22;8426;48.496;9.098;2023-07-20T23:11:20;14.80;99.90
16625;DHT22;8426;48.496;9.098;2023-07-20T23:16:25;14.90;99.90
16625;DHT22;8426;48.496;9.098;2023-07-20T23:21:37;15.00;99.90
16625;DHT22;8426;48.496;9.098;2023-07-20T23:26:41;15.10;99.90
16625;DHT22;8426;48.496;9.098;2023-07-20T23:31:45;15.30;99.90
16625;DHT22;8426;48.496;9.098;2023-07-20T23:36:50;15.40;99.90
16625;DHT22;8426;48.496;9.098;2023-07-20T23:41:55;15.50;99.90
16625;DHT22;8426;48.496;9.098;2023-07-20T23:47:01;15.50;99.90
16625;DHT22;8426;48.496;9.098;2023-07-20T23:52:07;15.50;99.90
16625;DHT22;8426;48.496;9.098;2023-07-20T23:57:12;15.50;99.90
